Terminal Aerodrome Forecast
Issued by NWS Binghamton, NY

Home | Current Version | Previous Version | Text Only | Print | Product List | Glossary On
Versions: 1 2 3 4 5 6 7 8 9 10 11 12 13 14 15 16 17 18 19 20 21
000
FTUS41 KBGM 212300
TAFBGM
TAF
KBGM 212332Z 2200/2224 33004KT P6SM SCT050
     FM221400 22008KT P6SM OVC100
     FM221800 22010G14KT P6SM -SHRA OVC035 PROB30 2218/2220 5SM
      -RAPL BR OVC020=

USA.gov is the U.S. government's official web portal to all federal, state and local government web resources and services.